Back to Top

Language: 

My Weather Underground Personal Weather Station Historical Data with Graphs...

Delerius Weather Station Historical Data
Daily Summary for December 13, 2017 Units:  English    Metric   Both
« Previous Day
Next Day »
Daily Weekly Monthly Yearly Custom
  High: Low: Average:
Temperature: 44.2 °F 35.2 °F 39.8 °F
Dew Point: 40.9 °F 33.4 °F 37.3 °F
Humidity: 95 % 86 % 91 %
Wind Speed: 22.0 mph 0.0 mph 9.2 mph
Wind Gust: 36.0 mph - -
Wind:- - WSW
Pressure: 29.50 in 29.07 in -
Precipitation: 0.17 in    
Historical Graphs
 
 
Tabular Data for December 13, 2017
Time Temperature Dew Point Pressure Wind Wind Speed Wind Gust Humidity Rainfall Rate (Hourly) solar Conditions
00:02 39.7 °F 38.2 °F 29.50 in SW 9.0 mph 14.0 mph 94 % 0.00 in 0 W/m2
00:07 39.7 °F 37.9 °F 29.50 in SW 4.0 mph 7.0 mph 93 % 0.00 in 0 W/m2
00:17 39.7 °F 37.9 °F 29.50 in WSW 4.0 mph 8.0 mph 93 % 0.00 in 0 W/m2
00:23 39.7 °F 37.9 °F 29.50 in SW 2.0 mph 4.0 mph 93 % 0.00 in 0 W/m2
00:28 39.6 °F 37.7 °F 29.50 in SW 1.0 mph 4.0 mph 93 % 0.00 in 0 W/m2
00:33 39.4 °F 37.5 °F 29.50 in SW 1.0 mph 4.0 mph 93 % 0.00 in 0 W/m2
00:38 39.4 °F 37.5 °F 29.50 in SSW 2.0 mph 6.0 mph 93 % 0.00 in 0 W/m2
00:43 39.2 °F 37.3 °F 29.50 in SW 1.0 mph 4.0 mph 93 % 0.00 in 0 W/m2
00:48 39.4 °F 37.8 °F 29.50 in West 6.0 mph 11.0 mph 94 % 0.00 in 0 W/m2
00:53 39.7 °F 38.2 °F 29.50 in West 7.0 mph 11.0 mph 94 % 0.00 in 0 W/m2
00:58 40.3 °F 38.7 °F 29.50 in West 7.0 mph 12.0 mph 94 % 0.00 in 0 W/m2
01:03 40.3 °F 38.7 °F 29.50 in West 7.0 mph 11.0 mph 94 % 0.00 in 0 W/m2
01:08 40.5 °F 38.9 °F 29.50 in West 6.0 mph 9.0 mph 94 % 0.00 in 0 W/m2
01:13 40.5 °F 38.9 °F 29.49 in West 6.0 mph 10.0 mph 94 % 0.00 in 0 W/m2
01:18 40.3 °F 38.7 °F 29.50 in West 4.0 mph 7.0 mph 94 % 0.00 in 0 W/m2
01:20 40.3 °F 38.4 °F 29.50 in WNW 4.0 mph 6.0 mph 93 % 0.00 in 0 W/m2
01:25 40.1 °F 38.2 °F 29.49 in West 4.0 mph 7.0 mph 93 % 0.00 in 0 W/m2
01:30 40.1 °F 38.2 °F 29.50 in West 5.0 mph 9.0 mph 93 % 0.00 in 0 W/m2
01:35 40.1 °F 38.2 °F 29.49 in West 7.0 mph 11.0 mph 93 % 0.00 in 0 W/m2
01:40 40.1 °F 38.2 °F 29.50 in West 6.0 mph 10.0 mph 93 % 0.00 in 0 W/m2
01:45 40.1 °F 38.2 °F 29.50 in West 4.0 mph 8.0 mph 93 % 0.00 in 0 W/m2
01:50 40.1 °F 38.2 °F 29.49 in WSW 2.0 mph 7.0 mph 93 % 0.00 in 0 W/m2
01:55 39.9 °F 38.1 °F 29.49 in Calm   4.0 mph 93 % 0.00 in 0 W/m2
02:00 39.9 °F 38.1 °F 29.49 in SW 1.0 mph 4.0 mph 93 % 0.00 in 0 W/m2
02:05 39.7 °F 37.9 °F 29.49 in Calm   1.0 mph 93 % 0.00 in 0 W/m2
02:10 39.7 °F 38.2 °F 29.49 in Calm     94 % 0.00 in 0 W/m2
02:15 39.7 °F 38.2 °F 29.49 in Calm   1.0 mph 94 % 0.00 in 0 W/m2
02:20 39.7 °F 37.9 °F 29.49 in Calm     93 % 0.00 in 0 W/m2
02:25 39.6 °F 37.7 °F 29.49 in Calm     93 % 0.00 in 0 W/m2
02:30 39.6 °F 37.7 °F 29.49 in Calm   2.0 mph 93 % 0.00 in 0 W/m2
02:35 39.6 °F 38.0 °F 29.49 in WSW 2.0 mph 4.0 mph 94 % 0.00 in 0 W/m2
02:40 39.6 °F 38.0 °F 29.49 in WSW 1.0 mph 5.0 mph 94 % 0.00 in 0 W/m2
02:45 39.6 °F 38.0 °F 29.49 in SW 1.0 mph 3.0 mph 94 % 0.00 in 0 W/m2
02:50 39.4 °F 37.8 °F 29.49 in WSW 1.0 mph 5.0 mph 94 % 0.00 in 0 W/m2
02:55 39.4 °F 37.8 °F 29.49 in Calm     94 % 0.00 in 0 W/m2
03:00 39.2 °F 37.3 °F 29.49 in Calm     93 % 0.00 in 0 W/m2
03:05 38.8 °F 37.0 °F 29.49 in Calm   3.0 mph 93 % 0.00 in 0 W/m2
03:10 38.8 °F 37.3 °F 29.49 in SW 3.0 mph 8.0 mph 94 % 0.00 in 0 W/m2
03:20 39.0 °F 37.4 °F 29.48 in Calm   1.0 mph 94 % 0.00 in 0 W/m2
03:21 39.0 °F 37.4 °F 29.48 in Calm   3.0 mph 94 % 0.00 in 0 W/m2
03:31 38.8 °F 37.3 °F 29.48 in SW 2.0 mph 5.0 mph 94 % 0.00 in 0 W/m2
03:37 38.8 °F 37.3 °F 29.48 in WSW 4.0 mph 6.0 mph 94 % 0.00 in 0 W/m2
03:42 39.0 °F 37.4 °F 29.47 in West 5.0 mph 9.0 mph 94 % 0.00 in 0 W/m2
03:47 39.4 °F 38.1 °F 29.47 in West 6.0 mph 11.0 mph 95 % 0.00 in 0 W/m2
03:52 39.7 °F 38.4 °F 29.46 in WSW 8.0 mph 13.0 mph 95 % 0.00 in 0 W/m2
03:57 39.9 °F 38.6 °F 29.46 in West 8.0 mph 13.0 mph 95 % 0.00 in 0 W/m2
04:02 40.3 °F 38.7 °F 29.46 in West 7.0 mph 11.0 mph 94 % 0.00 in 0 W/m2
04:07 40.3 °F 38.7 °F 29.46 in West 5.0 mph 10.0 mph 94 % 0.00 in 0 W/m2
04:17 40.5 °F 38.9 °F 29.46 in West 6.0 mph 11.0 mph 94 % 0.00 in 0 W/m2
04:22 40.6 °F 39.0 °F 29.46 in West 5.0 mph 7.0 mph 94 % 0.00 in 0 W/m2
04:27 40.8 °F 39.2 °F 29.46 in WSW 9.0 mph 13.0 mph 94 % 0.00 in 0 W/m2
04:32 41.2 °F 39.6 °F 29.46 in WSW 9.0 mph 19.0 mph 94 % 0.00 in 0 W/m2
04:37 41.4 °F 39.5 °F 29.46 in WSW 8.0 mph 15.0 mph 93 % 0.00 in 0 W/m2
04:42 41.4 °F 39.5 °F 29.46 in WSW 11.0 mph 16.0 mph 93 % 0.00 in 0 W/m2
04:47 41.5 °F 39.4 °F 29.46 in WSW 8.0 mph 19.0 mph 92 % 0.00 in 0 W/m2
04:52 41.5 °F 39.4 °F 29.45 in WSW 10.0 mph 15.0 mph 92 % 0.00 in 0 W/m2
04:57 41.7 °F 39.6 °F 29.45 in WSW 9.0 mph 14.0 mph 92 % 0.00 in 0 W/m2
05:02 41.7 °F 39.6 °F 29.45 in WSW 9.0 mph 14.0 mph 92 % 0.00 in 0 W/m2
05:07 41.7 °F 39.3 °F 29.44 in WSW 8.0 mph 13.0 mph 91 % 0.00 in 0 W/m2
05:12 41.7 °F 39.3 °F 29.44 in West 7.0 mph 11.0 mph 91 % 0.00 in 0 W/m2
05:17 41.5 °F 39.1 °F 29.44 in WSW 8.0 mph 12.0 mph 91 % 0.00 in 0 W/m2
05:22 41.7 °F 39.3 °F 29.44 in WSW 8.0 mph 11.0 mph 91 % 0.00 in 0 W/m2
05:27 41.7 °F 39.3 °F 29.44 in WSW 9.0 mph 14.0 mph 91 % 0.00 in 0 W/m2
05:32 41.7 °F 39.3 °F 29.44 in WSW 11.0 mph 20.0 mph 91 % 0.00 in 0 W/m2
05:37 41.9 °F 39.5 °F 29.44 in WSW 9.0 mph 12.0 mph 91 % 0.00 in 0 W/m2
05:42 41.9 °F 39.5 °F 29.44 in WSW 11.0 mph 18.0 mph 91 % 0.00 in 0 W/m2
05:47 42.1 °F 39.6 °F 29.44 in WSW 12.0 mph 20.0 mph 91 % 0.00 in 0 W/m2
05:52 42.1 °F 39.6 °F 29.43 in WSW 12.0 mph 19.0 mph 91 % 0.00 in 0 W/m2
05:57 42.1 °F 39.6 °F 29.43 in WSW 10.0 mph 15.0 mph 91 % 0.00 in 0 W/m2
06:02 42.1 °F 39.6 °F 29.43 in WSW 13.0 mph 16.0 mph 91 % 0.00 in 0 W/m2
06:07 42.1 °F 39.6 °F 29.43 in WSW 11.0 mph 16.0 mph 91 % 0.00 in 0 W/m2
06:12 42.1 °F 39.6 °F 29.42 in WSW 13.0 mph 18.0 mph 91 % 0.00 in 0 W/m2
06:17 42.3 °F 39.5 °F 29.42 in WSW 10.0 mph 16.0 mph 90 % 0.00 in 0 W/m2
06:22 42.3 °F 39.5 °F 29.42 in WSW 10.0 mph 14.0 mph 90 % 0.00 in 0 W/m2
06:27 42.3 °F 39.5 °F 29.42 in WSW 8.0 mph 13.0 mph 90 % 0.00 in 0 W/m2
06:37 42.3 °F 39.5 °F 29.41 in WSW 7.0 mph 11.0 mph 90 % 0.00 in 0 W/m2
06:42 42.1 °F 39.4 °F 29.41 in SW 7.0 mph 12.0 mph 90 % 0.00 in 0 W/m2
06:52 41.9 °F 39.2 °F 29.41 in SW 9.0 mph 12.0 mph 90 % 0.00 in 0 W/m2
06:57 41.9 °F 39.2 °F 29.41 in SW 8.0 mph 12.0 mph 90 % 0.00 in 0 W/m2
07:02 41.7 °F 39.0 °F 29.41 in SW 9.0 mph 14.0 mph 90 % 0.00 in 0 W/m2
07:07 41.7 °F 39.0 °F 29.40 in WSW 9.0 mph 15.0 mph 90 % 0.00 in 0 W/m2
07:12 41.5 °F 38.8 °F 29.40 in WSW 9.0 mph 13.0 mph 90 % 0.00 in 0 W/m2
07:17 41.5 °F 38.8 °F 29.40 in WSW 7.0 mph 10.0 mph 90 % 0.00 in 0 W/m2
07:22 41.5 °F 38.8 °F 29.40 in SW 7.0 mph 12.0 mph 90 % 0.00 in 0 W/m2
07:27 41.5 °F 38.8 °F 29.40 in SW 7.0 mph 11.0 mph 90 % 0.00 in 0 W/m2
07:32 41.4 °F 38.6 °F 29.40 in SW 7.0 mph 12.0 mph 90 % 0.00 in 0 W/m2
07:37 41.4 °F 38.6 °F 29.40 in SW 9.0 mph 12.0 mph 90 % 0.00 in 0 W/m2
07:42 41.4 °F 38.6 °F 29.40 in SW 8.0 mph 13.0 mph 90 % 0.00 in 0 W/m2
07:47 41.4 °F 38.6 °F 29.39 in SW 6.0 mph 11.0 mph 90 % 0.00 in 0 W/m2
07:52 41.2 °F 38.5 °F 29.39 in SW 9.0 mph 14.0 mph 90 % 0.00 in 0 W/m2
07:57 41.2 °F 38.5 °F 29.39 in SW 11.0 mph 15.0 mph 90 % 0.00 in 0 W/m2
08:02 41.2 °F 38.5 °F 29.39 in SW 9.0 mph 13.0 mph 90 % 0.00 in 0 W/m2
08:07 41.2 °F 38.5 °F 29.38 in SW 9.0 mph 14.0 mph 90 % 0.00 in 0 W/m2
08:12 41.2 °F 38.5 °F 29.38 in SW 10.0 mph 15.0 mph 90 % 0.00 in 0 W/m2
08:17 41.2 °F 38.5 °F 29.38 in SW 9.0 mph 14.0 mph 90 % 0.00 in 0 W/m2
08:22 41.2 °F 38.5 °F 29.38 in SW 10.0 mph 18.0 mph 90 % 0.00 in 0 W/m2
08:27 41.2 °F 38.5 °F 29.37 in SW 7.0 mph 11.0 mph 90 % 0.00 in 0 W/m2
08:32 41.0 °F 38.3 °F 29.37 in SW 6.0 mph 11.0 mph 90 % 0.00 in 0 W/m2
08:37 41.0 °F 38.3 °F 29.37 in SW 6.0 mph 10.0 mph 90 % 0.00 in 5 W/m2
08:42 41.0 °F 38.6 °F 29.36 in SW 7.0 mph 12.0 mph 91 % 0.01 in 9 W/m2
08:47 41.0 °F 38.6 °F 29.35 in SW 8.0 mph 13.0 mph 91 % 0.01 in 7 W/m2
08:53 40.8 °F 38.4 °F 29.35 in SW 6.0 mph 10.0 mph 91 % 0.01 in 9 W/m2
08:58 40.8 °F 38.4 °F 29.35 in SW 6.0 mph 11.0 mph 91 % 0.01 in 9 W/m2
09:03 40.8 °F 38.4 °F 29.34 in SW 7.0 mph 13.0 mph 91 % 0.01 in 12 W/m2
09:08 40.8 °F 38.4 °F 29.34 in SSW 5.0 mph 9.0 mph 91 % 0.01 in 12 W/m2
09:13 40.6 °F 38.5 °F 29.33 in SSW 7.0 mph 11.0 mph 92 % 0.01 in 11 W/m2
09:18 40.6 °F 38.5 °F 29.33 in SSW 5.0 mph 8.0 mph 92 % 0.01 in 9 W/m2
09:23 40.6 °F 38.5 °F 29.33 in SSW 5.0 mph 8.0 mph 92 % 0.01 in 14 W/m2
09:28 40.6 °F 38.5 °F 29.33 in SSW 5.0 mph 9.0 mph 92 % 0.01 in 14 W/m2
09:33 40.6 °F 38.5 °F 29.32 in SSW 5.0 mph 9.0 mph 92 % 0.01 in 19 W/m2
09:38 40.6 °F 38.5 °F 29.32 in South 3.0 mph 7.0 mph 92 % 0.01 in 18 W/m2
09:40 40.6 °F 38.5 °F 29.32 in South 5.0 mph 8.0 mph 92 % 0.00 in 21 W/m2
09:45 40.8 °F 38.7 °F 29.31 in South 5.0 mph 11.0 mph 92 % 0.00 in 42 W/m2
09:50 40.8 °F 38.7 °F 29.31 in SSW 5.0 mph 9.0 mph 92 % 0.00 in 46 W/m2
09:55 40.8 °F 38.7 °F 29.31 in SSW 5.0 mph 8.0 mph 92 % 0.00 in 32 W/m2
10:00 41.0 °F 38.9 °F 29.30 in SSW 5.0 mph 9.0 mph 92 % 0.00 in 28 W/m2
10:05 41.2 °F 39.0 °F 29.30 in SW 6.0 mph 13.0 mph 92 % 0.00 in 40 W/m2
10:10 41.5 °F 39.4 °F 29.30 in SW 10.0 mph 16.0 mph 92 % 0.00 in 72 W/m2
10:15 41.9 °F 39.7 °F 29.29 in SW 12.0 mph 18.0 mph 92 % 0.00 in 51 W/m2
10:20 42.3 °F 39.8 °F 29.29 in SW 9.0 mph 16.0 mph 91 % 0.00 in 42 W/m2
10:25 42.3 °F 39.8 °F 29.28 in SW 9.0 mph 13.0 mph 91 % 0.00 in 44 W/m2
10:30 42.4 °F 39.7 °F 29.27 in SW 10.0 mph 18.0 mph 90 % 0.00 in 44 W/m2
10:35 42.4 °F 39.7 °F 29.27 in SW 11.0 mph 19.0 mph 90 % 0.00 in 60 W/m2
10:40 42.4 °F 39.7 °F 29.27 in SW 9.0 mph 14.0 mph 90 % 0.00 in 93 W/m2
10:45 42.6 °F 39.9 °F 29.26 in WSW 13.0 mph 18.0 mph 90 % 0.00 in 142 W/m2
10:46 42.6 °F 39.9 °F 29.26 in WSW 12.0 mph 18.0 mph 90 % 0.00 in 223 W/m2
10:56 43.5 °F 40.5 °F 29.26 in SW 13.0 mph 22.0 mph 89 % 0.00 in 234 W/m2
11:01 43.9 °F 40.6 °F 29.25 in SW 13.0 mph 19.0 mph 88 % 0.00 in 243 W/m2
11:06 44.2 °F 40.9 °F 29.24 in SSW 10.0 mph 16.0 mph 88 % 0.00 in 241 W/m2
11:11 44.1 °F 40.4 °F 29.24 in SW 10.0 mph 15.0 mph 87 % 0.00 in 123 W/m2
11:16 43.9 °F 40.3 °F 29.23 in SW 9.0 mph 14.0 mph 87 % 0.00 in 123 W/m2
11:21 43.7 °F 40.4 °F 29.23 in SW 14.0 mph 24.0 mph 88 % 0.00 in 69 W/m2
11:26 43.5 °F 40.2 °F 29.23 in SSW 11.0 mph 16.0 mph 88 % 0.00 in 91 W/m2
11:31 43.5 °F 40.5 °F 29.22 in SW 10.0 mph 14.0 mph 89 % 0.00 in 156 W/m2
11:36 43.9 °F 40.8 °F 29.22 in SW 9.0 mph 20.0 mph 89 % 0.00 in 220 W/m2
11:41 43.9 °F 40.6 °F 29.22 in SSW 9.0 mph 16.0 mph 88 % 0.00 in 72 W/m2
11:46 43.5 °F 40.2 °F 29.21 in SSW 10.0 mph 16.0 mph 88 % 0.00 in 116 W/m2
11:51 43.5 °F 40.2 °F 29.20 in SW 9.0 mph 14.0 mph 88 % 0.00 in 192 W/m2
11:56 43.5 °F 40.5 °F 29.20 in SW 9.0 mph 15.0 mph 89 % 0.00 in 63 W/m2
12:01 43.5 °F 40.5 °F 29.20 in SSW 9.0 mph 18.0 mph 89 % 0.00 in 58 W/m2
12:06 43.3 °F 40.3 °F 29.19 in SW 11.0 mph 20.0 mph 89 % 0.00 in 44 W/m2
12:11 43.2 °F 40.1 °F 29.18 in SW 9.0 mph 14.0 mph 89 % 0.00 in 107 W/m2
12:16 43.2 °F 40.4 °F 29.18 in SW 11.0 mph 15.0 mph 90 % 0.00 in 67 W/m2
12:21 43.2 °F 40.4 °F 29.18 in SW 7.0 mph 10.0 mph 90 % 0.00 in 58 W/m2
12:26 43.2 °F 40.4 °F 29.17 in SW 7.0 mph 12.0 mph 90 % 0.01 in 165 W/m2
12:31 43.2 °F 40.7 °F 29.17 in SW 10.0 mph 15.0 mph 91 % 0.01 in 46 W/m2
12:36 43.2 °F 40.7 °F 29.16 in SSW 9.0 mph 14.0 mph 91 % 0.01 in 35 W/m2
12:39 43.0 °F 40.5 °F 29.16 in SW 8.0 mph 13.0 mph 91 % 0.01 in 37 W/m2
12:44 43.0 °F 40.5 °F 29.16 in SW 7.0 mph 11.0 mph 91 % 0.01 in 32 W/m2
12:49 43.0 °F 40.5 °F 29.16 in WSW 9.0 mph 16.0 mph 91 % 0.01 in 18 W/m2
12:54 43.2 °F 40.7 °F 29.17 in WSW 11.0 mph 18.0 mph 91 % 0.01 in 14 W/m2
12:59 43.2 °F 40.7 °F 29.17 in West 13.0 mph 22.0 mph 91 % 0.02 in 16 W/m2
13:04 43.0 °F 40.2 °F 29.17 in WSW 14.0 mph 23.0 mph 90 % 0.03 in 18 W/m2
13:09 42.6 °F 39.9 °F 29.17 in West 17.0 mph 27.0 mph 90 % 0.04 in 49 W/m2
13:14 42.4 °F 39.7 °F 29.17 in West 13.0 mph 19.0 mph 90 % 0.04 in 46 W/m2
13:19 42.3 °F 39.8 °F 29.17 in West 17.0 mph 25.0 mph 91 % 0.06 in 30 W/m2
13:24 42.1 °F 39.6 °F 29.17 in West 12.0 mph 22.0 mph 91 % 0.06 in 33 W/m2
13:29 41.7 °F 39.3 °F 29.17 in West 9.0 mph 20.0 mph 91 % 0.06 in 40 W/m2
13:34 41.5 °F 39.1 °F 29.17 in West 10.0 mph 16.0 mph 91 % 0.06 in 16 W/m2
13:39 41.4 °F 38.9 °F 29.18 in West 9.0 mph 16.0 mph 91 % 0.06 in 14 W/m2
13:44 41.2 °F 38.8 °F 29.17 in West 8.0 mph 14.0 mph 91 % 0.06 in 12 W/m2
13:49 40.8 °F 38.4 °F 29.17 in WNW 12.0 mph 23.0 mph 91 % 0.07 in 11 W/m2
13:54 40.6 °F 38.2 °F 29.17 in West 10.0 mph 14.0 mph 91 % 0.08 in 21 W/m2
13:59 40.3 °F 37.9 °F 29.16 in West 13.0 mph 19.0 mph 91 % 0.07 in 23 W/m2
14:04 39.9 °F 37.8 °F 29.16 in West 7.0 mph 13.0 mph 92 % 0.06 in 30 W/m2
14:09 39.9 °F 37.8 °F 29.16 in West 7.0 mph 11.0 mph 92 % 0.06 in 26 W/m2
14:14 39.9 °F 37.8 °F 29.16 in West 7.0 mph 11.0 mph 92 % 0.06 in 11 W/m2
14:19 39.7 °F 37.6 °F 29.16 in West 6.0 mph 9.0 mph 92 % 0.04 in 12 W/m2
14:24 39.7 °F 37.6 °F 29.16 in West 6.0 mph 9.0 mph 92 % 0.04 in 25 W/m2
14:29 39.7 °F 37.6 °F 29.15 in West 6.0 mph 10.0 mph 92 % 0.04 in 21 W/m2
14:34 39.7 °F 37.9 °F 29.15 in West 9.0 mph 18.0 mph 93 % 0.04 in 26 W/m2
14:39 39.7 °F 37.9 °F 29.15 in West 12.0 mph 21.0 mph 93 % 0.04 in 44 W/m2
14:44 39.9 °F 37.8 °F 29.15 in WNW 17.0 mph 26.0 mph 92 % 0.03 in 33 W/m2
14:49 40.3 °F 38.1 °F 29.15 in WNW 15.0 mph 23.0 mph 92 % 0.02 in 35 W/m2
14:54 40.3 °F 37.9 °F 29.15 in WNW 14.0 mph 22.0 mph 91 % 0.01 in 42 W/m2
14:59 40.1 °F 37.7 °F 29.15 in WNW 10.0 mph 14.0 mph 91 % 0.01 in 39 W/m2
15:04 39.9 °F 37.5 °F 29.15 in WNW 10.0 mph 16.0 mph 91 % 0.01 in 21 W/m2
15:14 39.7 °F 37.3 °F 29.15 in West 13.0 mph 21.0 mph 91 % 0.01 in 11 W/m2
15:19 39.6 °F 37.2 °F 29.15 in West 14.0 mph 28.0 mph 91 % 0.01 in 11 W/m2
15:24 39.6 °F 36.6 °F 29.15 in West 12.0 mph 19.0 mph 89 % 0.01 in 12 W/m2
15:29 39.6 °F 36.6 °F 29.15 in West 10.0 mph 15.0 mph 89 % 0.00 in 16 W/m2
15:34 39.4 °F 36.1 °F 29.15 in West 10.0 mph 16.0 mph 88 % 0.00 in 11 W/m2
15:39 39.4 °F 36.1 °F 29.15 in West 10.0 mph 16.0 mph 88 % 0.00 in 7 W/m2
15:44 39.0 °F 35.8 °F 29.15 in West 9.0 mph 16.0 mph 88 % 0.00 in 5 W/m2
15:49 38.8 °F 35.6 °F 29.16 in WNW 12.0 mph 20.0 mph 88 % 0.00 in 0 W/m2
15:54 39.0 °F 35.5 °F 29.15 in West 12.0 mph 19.0 mph 87 % 0.00 in 0 W/m2
15:59 39.0 °F 35.5 °F 29.15 in West 14.0 mph 24.0 mph 87 % 0.00 in 0 W/m2
16:04 38.8 °F 35.0 °F 29.15 in West 11.0 mph 21.0 mph 86 % 0.00 in 0 W/m2
16:09 38.8 °F 35.0 °F 29.15 in West 14.0 mph 21.0 mph 86 % 0.00 in 0 W/m2
16:15 38.7 °F 35.1 °F 29.14 in West 14.0 mph 24.0 mph 87 % 0.00 in 0 W/m2
16:20 38.3 °F 35.1 °F 29.14 in West 13.0 mph 18.0 mph 88 % 0.00 in 0 W/m2
16:25 38.1 °F 34.9 °F 29.14 in WNW 14.0 mph 23.0 mph 88 % 0.00 in 0 W/m2
16:30 37.9 °F 35.0 °F 29.14 in WNW 13.0 mph 21.0 mph 89 % 0.00 in 0 W/m2
16:35 37.9 °F 35.0 °F 29.14 in WNW 12.0 mph 18.0 mph 89 % 0.00 in 0 W/m2
16:40 37.9 °F 35.0 °F 29.14 in WNW 9.0 mph 14.0 mph 89 % 0.00 in 0 W/m2
16:45 37.8 °F 34.8 °F 29.14 in West 9.0 mph 14.0 mph 89 % 0.00 in 0 W/m2
16:50 37.8 °F 34.8 °F 29.14 in West 11.0 mph 19.0 mph 89 % 0.00 in 0 W/m2
16:55 38.1 °F 35.4 °F 29.14 in West 13.0 mph 22.0 mph 90 % 0.00 in 0 W/m2
17:00 38.5 °F 35.8 °F 29.14 in West 13.0 mph 22.0 mph 90 % 0.00 in 0 W/m2
17:05 38.5 °F 35.5 °F 29.13 in West 11.0 mph 16.0 mph 89 % 0.00 in 0 W/m2
17:10 38.5 °F 35.5 °F 29.13 in West 15.0 mph 22.0 mph 89 % 0.00 in 0 W/m2
17:15 38.7 °F 35.7 °F 29.13 in West 14.0 mph 25.0 mph 89 % 0.00 in 0 W/m2
17:20 38.7 °F 35.7 °F 29.13 in West 15.0 mph 21.0 mph 89 % 0.00 in 0 W/m2
17:25 38.8 °F 35.9 °F 29.13 in West 12.0 mph 19.0 mph 89 % 0.00 in 0 W/m2
17:30 38.8 °F 35.6 °F 29.13 in West 13.0 mph 20.0 mph 88 % 0.00 in 0 W/m2
17:35 38.8 °F 35.3 °F 29.13 in West 14.0 mph 21.0 mph 87 % 0.00 in 0 W/m2
17:40 39.0 °F 35.5 °F 29.13 in West 13.0 mph 22.0 mph 87 % 0.00 in 0 W/m2
17:45 39.0 °F 35.2 °F 29.13 in West 10.0 mph 18.0 mph 86 % 0.00 in 0 W/m2
17:50 38.8 °F 35.0 °F 29.13 in West 11.0 mph 25.0 mph 86 % 0.00 in 0 W/m2
17:55 38.8 °F 35.0 °F 29.13 in West 14.0 mph 24.0 mph 86 % 0.00 in 0 W/m2
18:00 38.8 °F 35.0 °F 29.12 in West 16.0 mph 23.0 mph 86 % 0.00 in 0 W/m2
18:05 38.8 °F 35.0 °F 29.12 in West 13.0 mph 24.0 mph 86 % 0.00 in 0 W/m2
18:10 38.8 °F 35.0 °F 29.12 in West 11.0 mph 18.0 mph 86 % 0.00 in 0 W/m2
18:15 38.7 °F 34.8 °F 29.11 in West 13.0 mph 20.0 mph 86 % 0.00 in 0 W/m2
18:20 38.7 °F 34.8 °F 29.11 in West 12.0 mph 20.0 mph 86 % 0.00 in 0 W/m2
18:25 38.5 °F 34.7 °F 29.11 in West 9.0 mph 15.0 mph 86 % 0.00 in 0 W/m2
18:26 38.5 °F 34.7 °F 29.11 in West 10.0 mph 15.0 mph 86 % 0.00 in 0 W/m2
18:31 38.3 °F 34.8 °F 29.10 in West 10.0 mph 18.0 mph 87 % 0.00 in 0 W/m2
18:32 38.3 °F 34.8 °F 29.10 in West 12.0 mph 18.0 mph 87 % 0.00 in 0 W/m2
18:37 38.3 °F 34.8 °F 29.10 in West 14.0 mph 22.0 mph 87 % 0.00 in 0 W/m2
18:42 38.3 °F 34.8 °F 29.09 in West 14.0 mph 22.0 mph 87 % 0.00 in 0 W/m2
18:47 38.1 °F 34.6 °F 29.09 in West 13.0 mph 21.0 mph 87 % 0.00 in 0 W/m2
18:52 37.9 °F 34.4 °F 29.09 in West 11.0 mph 14.0 mph 87 % 0.00 in 0 W/m2
18:57 37.9 °F 34.7 °F 29.08 in West 12.0 mph 20.0 mph 88 % 0.00 in 0 W/m2
19:02 37.9 °F 34.4 °F 29.08 in West 11.0 mph 16.0 mph 87 % 0.00 in 0 W/m2
19:08 37.9 °F 34.4 °F 29.07 in West 10.0 mph 18.0 mph 87 % 0.00 in 0 W/m2
19:13 38.1 °F 34.6 °F 29.08 in West 11.0 mph 22.0 mph 87 % 0.00 in 0 W/m2
19:18 38.1 °F 34.6 °F 29.07 in West 11.0 mph 20.0 mph 87 % 0.00 in 0 W/m2
19:23 38.1 °F 34.6 °F 29.07 in West 11.0 mph 16.0 mph 87 % 0.00 in 0 W/m2
19:28 38.1 °F 34.6 °F 29.08 in West 10.0 mph 19.0 mph 87 % 0.00 in 0 W/m2
19:38 38.3 °F 34.8 °F 29.08 in West 11.0 mph 18.0 mph 87 % 0.00 in 0 W/m2
19:39 38.3 °F 34.8 °F 29.08 in West 11.0 mph 18.0 mph 87 % 0.00 in 0 W/m2
19:44 38.5 °F 34.7 °F 29.08 in West 11.0 mph 15.0 mph 86 % 0.00 in 0 W/m2
19:49 38.5 °F 34.7 °F 29.08 in West 13.0 mph 20.0 mph 86 % 0.00 in 0 W/m2
19:54 38.5 °F 34.9 °F 29.08 in West 14.0 mph 20.0 mph 87 % 0.00 in 0 W/m2
19:59 38.1 °F 34.6 °F 29.08 in West 14.0 mph 22.0 mph 87 % 0.00 in 0 W/m2
20:04 37.9 °F 34.7 °F 29.08 in West 10.0 mph 16.0 mph 88 % 0.00 in 0 W/m2
20:09 37.8 °F 34.5 °F 29.09 in West 12.0 mph 22.0 mph 88 % 0.00 in 0 W/m2
20:14 37.8 °F 34.5 °F 29.09 in West 17.0 mph 28.0 mph 88 % 0.00 in 0 W/m2
20:19 37.8 °F 34.5 °F 29.09 in West 14.0 mph 22.0 mph 88 % 0.00 in 0 W/m2
20:24 37.6 °F 34.6 °F 29.09 in West 16.0 mph 25.0 mph 89 % 0.00 in 0 W/m2
20:29 37.2 °F 34.6 °F 29.09 in West 12.0 mph 23.0 mph 90 % 0.00 in 0 W/m2
20:34 37.0 °F 34.4 °F 29.09 in West 12.0 mph 18.0 mph 90 % 0.01 in 0 W/m2
20:39 36.9 °F 34.5 °F 29.09 in West 12.0 mph 19.0 mph 91 % 0.01 in 0 W/m2
20:44 36.7 °F 34.3 °F 29.10 in West 10.0 mph 15.0 mph 91 % 0.01 in 0 W/m2
20:49 36.5 °F 34.1 °F 29.10 in West 12.0 mph 19.0 mph 91 % 0.01 in 0 W/m2
20:54 36.3 °F 34.2 °F 29.10 in West 9.0 mph 14.0 mph 92 % 0.01 in 0 W/m2
20:59 36.3 °F 34.2 °F 29.10 in West 12.0 mph 23.0 mph 92 % 0.01 in 0 W/m2
21:04 36.3 °F 34.2 °F 29.10 in West 10.0 mph 16.0 mph 92 % 0.01 in 0 W/m2
21:14 36.3 °F 34.2 °F 29.11 in West 12.0 mph 23.0 mph 92 % 0.01 in 0 W/m2
21:19 36.1 °F 34.0 °F 29.11 in West 10.0 mph 15.0 mph 92 % 0.02 in 0 W/m2
21:24 36.0 °F 33.9 °F 29.11 in West 8.0 mph 15.0 mph 92 % 0.02 in 0 W/m2
21:29 35.8 °F 33.7 °F 29.11 in West 8.0 mph 13.0 mph 92 % 0.02 in 0 W/m2
21:34 35.6 °F 33.8 °F 29.10 in West 7.0 mph 12.0 mph 93 % 0.02 in 0 W/m2
21:39 35.4 °F 33.6 °F 29.10 in West 7.0 mph 12.0 mph 93 % 0.02 in 0 W/m2
21:44 35.4 °F 33.6 °F 29.10 in West 7.0 mph 10.0 mph 93 % 0.02 in 0 W/m2
21:49 35.4 °F 33.6 °F 29.10 in West 7.0 mph 10.0 mph 93 % 0.02 in 0 W/m2
21:54 35.4 °F 33.6 °F 29.11 in West 8.0 mph 14.0 mph 93 % 0.02 in 0 W/m2
21:59 35.4 °F 33.6 °F 29.11 in West 9.0 mph 15.0 mph 93 % 0.02 in 0 W/m2
22:04 35.6 °F 33.8 °F 29.11 in West 11.0 mph 18.0 mph 93 % 0.02 in 0 W/m2
22:09 35.8 °F 34.0 °F 29.11 in WNW 10.0 mph 15.0 mph 93 % 0.02 in 0 W/m2
22:14 35.8 °F 34.0 °F 29.11 in WNW 11.0 mph 18.0 mph 93 % 0.02 in 0 W/m2
22:19 35.6 °F 33.8 °F 29.11 in WNW 13.0 mph 23.0 mph 93 % 0.02 in 0 W/m2
22:24 35.4 °F 33.6 °F 29.10 in WNW 12.0 mph 16.0 mph 93 % 0.02 in 0 W/m2
22:29 35.2 °F 33.4 °F 29.11 in West 7.0 mph 11.0 mph 93 % 0.02 in 0 W/m2
22:31 35.2 °F 33.4 °F 29.11 in West 8.0 mph 12.0 mph 93 % 0.02 in 0 W/m2
22:36 35.2 °F 33.4 °F 29.11 in West 7.0 mph 11.0 mph 93 % 0.03 in 0 W/m2
22:41 35.4 °F 33.9 °F 29.10 in West 8.0 mph 12.0 mph 94 % 0.03 in 0 W/m2
22:46 35.4 °F 33.9 °F 29.11 in West 8.0 mph 12.0 mph 94 % 0.03 in 0 W/m2
22:51 35.8 °F 34.2 °F 29.10 in West 13.0 mph 21.0 mph 94 % 0.03 in 0 W/m2
22:56 35.8 °F 34.0 °F 29.10 in West 13.0 mph 21.0 mph 93 % 0.03 in 0 W/m2
23:01 35.8 °F 34.0 °F 29.10 in WNW 11.0 mph 19.0 mph 93 % 0.03 in 0 W/m2
23:06 36.0 °F 34.1 °F 29.11 in West 13.0 mph 22.0 mph 93 % 0.03 in 0 W/m2
23:11 36.1 °F 34.3 °F 29.11 in West 15.0 mph 24.0 mph 93 % 0.03 in 0 W/m2
23:16 36.3 °F 34.2 °F 29.11 in WNW 16.0 mph 25.0 mph 92 % 0.02 in 0 W/m2
23:21 36.7 °F 34.3 °F 29.11 in West 18.0 mph 27.0 mph 91 % 0.02 in 0 W/m2
23:26 36.9 °F 34.2 °F 29.11 in West 22.0 mph 35.0 mph 90 % 0.01 in 0 W/m2
23:27 36.9 °F 34.2 °F 29.11 in West 22.0 mph 36.0 mph 90 % 0.01 in 0 W/m2
23:32 36.3 °F 33.4 °F 29.11 in WNW 17.0 mph 29.0 mph 89 % 0.00 in 0 W/m2
23:37 36.3 °F 33.7 °F 29.10 in WNW 15.0 mph 23.0 mph 90 % 0.00 in 0 W/m2
23:42 36.3 °F 33.7 °F 29.10 in West 15.0 mph 24.0 mph 90 % 0.00 in 0 W/m2
23:47 36.1 °F 33.5 °F 29.11 in West 14.0 mph 22.0 mph 90 % 0.00 in 0 W/m2
23:52 36.1 °F 33.5 °F 29.11 in West 11.0 mph 19.0 mph 90 % 0.00 in 0 W/m2
23:57 36.1 °F 33.8 °F 29.11 in West 12.0 mph 20.0 mph 91 % 0.00 in 0 W/m2
Delerius-Weather
Compliments of Weather Underground - 2.25 mb

Data updates at regular intervals.